sensor_id;sensor_type;location;lat;lon;timestamp;temperature;humidity
49238;DHT22;35069;47.906;1.892;2022-08-03T00:01:03;26.50;53.50
49238;DHT22;35069;47.906;1.892;2022-08-03T00:03:29;26.50;53.50
49238;DHT22;35069;47.906;1.892;2022-08-03T00:05:54;26.50;53.50
49238;DHT22;35069;47.906;1.892;2022-08-03T00:08:20;26.40;53.40
49238;DHT22;35069;47.906;1.892;2022-08-03T00:10:45;26.40;53.70
49238;DHT22;35069;47.906;1.892;2022-08-03T00:13:11;26.40;53.70
49238;DHT22;35069;47.906;1.892;2022-08-03T00:15:39;26.40;53.90
49238;DHT22;35069;47.906;1.892;2022-08-03T00:18:05;26.30;53.90
49238;DHT22;35069;47.906;1.892;2022-08-03T00:20:31;26.30;54.10
49238;DHT22;35069;47.906;1.892;2022-08-03T00:22:57;26.20;54.20
49238;DHT22;35069;47.906;1.892;2022-08-03T00:25:22;26.20;54.30
49238;DHT22;35069;47.906;1.892;2022-08-03T00:27:48;26.30;54.40
49238;DHT22;35069;47.906;1.892;2022-08-03T00:30:14;26.30;54.50
49238;DHT22;35069;47.906;1.892;2022-08-03T00:32:40;26.30;54.50
49238;DHT22;35069;47.906;1.892;2022-08-03T00:35:06;26.30;54.50
49238;DHT22;35069;47.906;1.892;2022-08-03T00:37:31;26.30;54.60
49238;DHT22;35069;47.906;1.892;2022-08-03T00:39:57;26.40;54.70
49238;DHT22;35069;47.906;1.892;2022-08-03T00:42:22;26.30;54.70
49238;DHT22;35069;47.906;1.892;2022-08-03T00:44:48;26.20;54.90
49238;DHT22;35069;47.906;1.892;2022-08-03T00:47:14;26.20;54.90
49238;DHT22;35069;47.906;1.892;2022-08-03T00:49:40;26.20;55.00
49238;DHT22;35069;47.906;1.892;2022-08-03T00:52:08;26.20;55.50
49238;DHT22;35069;47.906;1.892;2022-08-03T00:54:38;26.10;54.90
49238;DHT22;35069;47.906;1.892;2022-08-03T00:57:04;26.10;55.00
49238;DHT22;35069;47.906;1.892;2022-08-03T00:59:30;26.10;55.10
49238;DHT22;35069;47.906;1.892;2022-08-03T01:01:56;26.00;55.10
49238;DHT22;35069;47.906;1.892;2022-08-03T01:04:21;26.00;55.30
49238;DHT22;35069;47.906;1.892;2022-08-03T01:07:16;25.90;55.40
49238;DHT22;35069;47.906;1.892;2022-08-03T01:12:29;25.80;55.90
49238;DHT22;35069;47.906;1.892;2022-08-03T01:15:02;25.80;56.00
49238;DHT22;35069;47.906;1.892;2022-08-03T01:17:39;25.80;55.80
49238;DHT22;35069;47.906;1.892;2022-08-03T01:20:12;25.80;55.80
49238;DHT22;35069;47.906;1.892;2022-08-03T01:31:15;25.70;56.40
49238;DHT22;35069;47.906;1.892;2022-08-03T01:33:46;25.60;56.50
49238;DHT22;35069;47.906;1.892;2022-08-03T01:36:18;25.60;56.40
49238;DHT22;35069;47.906;1.892;2022-08-03T01:38:50;25.60;56.30
49238;DHT22;35069;47.906;1.892;2022-08-03T01:41:21;25.50;56.50
49238;DHT22;35069;47.906;1.892;2022-08-03T01:43:50;25.50;56.50
49238;DHT22;35069;47.906;1.892;2022-08-03T01:46:17;25.50;56.40
49238;DHT22;35069;47.906;1.892;2022-08-03T01:48:47;25.50;56.50
49238;DHT22;35069;47.906;1.892;2022-08-03T01:51:14;25.50;56.50
49238;DHT22;35069;47.906;1.892;2022-08-03T01:53:41;25.50;56.50
49238;DHT22;35069;47.906;1.892;2022-08-03T01:56:10;25.40;56.50
49238;DHT22;35069;47.906;1.892;2022-08-03T01:58:39;25.40;56.80
49238;DHT22;35069;47.906;1.892;2022-08-03T02:01:05;25.40;56.80
49238;DHT22;35069;47.906;1.892;2022-08-03T02:03:36;25.40;56.90
49238;DHT22;35069;47.906;1.892;2022-08-03T02:06:04;25.40;57.00
49238;DHT22;35069;47.906;1.892;2022-08-03T02:08:31;25.30;56.90
49238;DHT22;35069;47.906;1.892;2022-08-03T02:10:58;25.30;57.20
49238;DHT22;35069;47.906;1.892;2022-08-03T02:13:25;25.30;57.30
49238;DHT22;35069;47.906;1.892;2022-08-03T02:15:52;25.30;57.50
49238;DHT22;35069;47.906;1.892;2022-08-03T02:18:19;25.20;57.60
49238;DHT22;35069;47.906;1.892;2022-08-03T02:20:45;25.10;58.10
49238;DHT22;35069;47.906;1.892;2022-08-03T02:23:13;25.00;58.10
49238;DHT22;35069;47.906;1.892;2022-08-03T02:25:45;25.00;58.20
49238;DHT22;35069;47.906;1.892;2022-08-03T02:28:28;24.90;58.60
49238;DHT22;35069;47.906;1.892;2022-08-03T02:30:57;24.90;59.10
49238;DHT22;35069;47.906;1.892;2022-08-03T02:33:33;24.80;58.70
49238;DHT22;35069;47.906;1.892;2022-08-03T02:36:01;24.90;58.80
49238;DHT22;35069;47.906;1.892;2022-08-03T02:38:32;24.90;58.70
49238;DHT22;35069;47.906;1.892;2022-08-03T02:41:00;24.90;58.80
49238;DHT22;35069;47.906;1.892;2022-08-03T02:43:27;24.80;58.90
49238;DHT22;35069;47.906;1.892;2022-08-03T02:45:54;24.80;59.20
49238;DHT22;35069;47.906;1.892;2022-08-03T02:48:24;24.80;59.10
49238;DHT22;35069;47.906;1.892;2022-08-03T02:50:53;24.80;59.00
49238;DHT22;35069;47.906;1.892;2022-08-03T02:53:21;24.80;59.10
49238;DHT22;35069;47.906;1.892;2022-08-03T02:55:49;24.80;59.20
49238;DHT22;35069;47.906;1.892;2022-08-03T02:58:18;24.70;59.30
49238;DHT22;35069;47.906;1.892;2022-08-03T03:00:46;24.60;59.60
49238;DHT22;35069;47.906;1.892;2022-08-03T03:03:12;24.50;59.90
49238;DHT22;35069;47.906;1.892;2022-08-03T03:05:40;24.50;60.00
49238;DHT22;35069;47.906;1.892;2022-08-03T03:08:07;24.50;60.50
49238;DHT22;35069;47.906;1.892;2022-08-03T03:10:33;24.50;60.40
49238;DHT22;35069;47.906;1.892;2022-08-03T03:13:00;24.40;60.50
49238;DHT22;35069;47.906;1.892;2022-08-03T03:15:28;24.30;60.70
49238;DHT22;35069;47.906;1.892;2022-08-03T03:17:56;24.30;60.90
49238;DHT22;35069;47.906;1.892;2022-08-03T03:20:23;24.20;61.00
49238;DHT22;35069;47.906;1.892;2022-08-03T03:22:49;24.10;61.00
49238;DHT22;35069;47.906;1.892;2022-08-03T03:25:16;24.10;61.10
49238;DHT22;35069;47.906;1.892;2022-08-03T03:27:43;24.00;61.30
49238;DHT22;35069;47.906;1.892;2022-08-03T03:30:11;24.00;61.30
49238;DHT22;35069;47.906;1.892;2022-08-03T03:32:37;24.00;61.40
49238;DHT22;35069;47.906;1.892;2022-08-03T03:35:05;24.10;61.30
49238;DHT22;35069;47.906;1.892;2022-08-03T03:37:31;24.10;61.10
49238;DHT22;35069;47.906;1.892;2022-08-03T03:39:57;24.20;61.00
49238;DHT22;35069;47.906;1.892;2022-08-03T03:42:24;24.20;60.90
49238;DHT22;35069;47.906;1.892;2022-08-03T03:44:50;24.20;60.90
49238;DHT22;35069;47.906;1.892;2022-08-03T03:47:16;24.20;60.80
49238;DHT22;35069;47.906;1.892;2022-08-03T03:49:42;24.20;60.80
49238;DHT22;35069;47.906;1.892;2022-08-03T03:52:07;24.20;61.00
49238;DHT22;35069;47.906;1.892;2022-08-03T03:54:43;24.20;61.00
49238;DHT22;35069;47.906;1.892;2022-08-03T03:57:09;24.10;61.30
49238;DHT22;35069;47.906;1.892;2022-08-03T03:59:42;24.10;61.40
49238;DHT22;35069;47.906;1.892;2022-08-03T04:02:09;24.00;61.70
49238;DHT22;35069;47.906;1.892;2022-08-03T04:04:36;24.00;62.40
49238;DHT22;35069;47.906;1.892;2022-08-03T04:07:23;24.00;61.80
49238;DHT22;35069;47.906;1.892;2022-08-03T04:10:16;24.00;61.90
49238;DHT22;35069;47.906;1.892;2022-08-03T04:13:03;24.10;61.90
49238;DHT22;35069;47.906;1.892;2022-08-03T04:15:33;24.00;61.70
49238;DHT22;35069;47.906;1.892;2022-08-03T04:18:00;24.00;61.80
49238;DHT22;35069;47.906;1.892;2022-08-03T04:20:30;24.00;61.80
49238;DHT22;35069;47.906;1.892;2022-08-03T04:22:58;24.00;61.80
49238;DHT22;35069;47.906;1.892;2022-08-03T04:25:29;24.00;61.90
49238;DHT22;35069;47.906;1.892;2022-08-03T04:27:56;24.10;61.90
49238;DHT22;35069;47.906;1.892;2022-08-03T04:30:26;24.10;61.80
49238;DHT22;35069;47.906;1.892;2022-08-03T04:32:53;24.20;61.90
49238;DHT22;35069;47.906;1.892;2022-08-03T04:35:19;24.10;61.70
49238;DHT22;35069;47.906;1.892;2022-08-03T04:37:48;24.10;61.90
49238;DHT22;35069;47.906;1.892;2022-08-03T04:40:32;24.10;62.00
49238;DHT22;35069;47.906;1.892;2022-08-03T04:42:59;24.00;62.60
49238;DHT22;35069;47.906;1.892;2022-08-03T04:45:26;24.00;62.30
49238;DHT22;35069;47.906;1.892;2022-08-03T04:47:53;24.00;62.20
49238;DHT22;35069;47.906;1.892;2022-08-03T04:50:19;24.10;62.30
49238;DHT22;35069;47.906;1.892;2022-08-03T04:52:47;24.00;62.40
49238;DHT22;35069;47.906;1.892;2022-08-03T04:55:24;24.00;62.40
49238;DHT22;35069;47.906;1.892;2022-08-03T04:57:50;24.00;63.00
49238;DHT22;35069;47.906;1.892;2022-08-03T05:00:16;23.90;62.70
49238;DHT22;35069;47.906;1.892;2022-08-03T05:02:42;23.90;62.90
49238;DHT22;35069;47.906;1.892;2022-08-03T05:05:08;23.90;63.00
49238;DHT22;35069;47.906;1.892;2022-08-03T05:07:34;24.00;63.00
49238;DHT22;35069;47.906;1.892;2022-08-03T05:09:59;24.10;62.80
49238;DHT22;35069;47.906;1.892;2022-08-03T05:12:25;24.30;62.60
49238;DHT22;35069;47.906;1.892;2022-08-03T05:14:50;24.40;62.20
49238;DHT22;35069;47.906;1.892;2022-08-03T05:17:16;24.50;62.00
49238;DHT22;35069;47.906;1.892;2022-08-03T05:19:41;24.60;62.00
49238;DHT22;35069;47.906;1.892;2022-08-03T05:22:07;24.70;61.90
49238;DHT22;35069;47.906;1.892;2022-08-03T05:24:33;24.80;61.50
49238;DHT22;35069;47.906;1.892;2022-08-03T05:26:58;24.80;61.30
49238;DHT22;35069;47.906;1.892;2022-08-03T05:29:24;24.80;61.30
49238;DHT22;35069;47.906;1.892;2022-08-03T05:31:49;24.80;61.30
49238;DHT22;35069;47.906;1.892;2022-08-03T05:34:15;24.70;61.50
49238;DHT22;35069;47.906;1.892;2022-08-03T05:36:41;24.80;61.50
49238;DHT22;35069;47.906;1.892;2022-08-03T05:39:06;25.00;61.10
49238;DHT22;35069;47.906;1.892;2022-08-03T05:41:32;25.20;60.80
49238;DHT22;35069;47.906;1.892;2022-08-03T05:43:57;25.40;60.60
49238;DHT22;35069;47.906;1.892;2022-08-03T05:46:23;25.60;60.30
49238;DHT22;35069;47.906;1.892;2022-08-03T05:48:49;25.70;60.20
49238;DHT22;35069;47.906;1.892;2022-08-03T05:51:15;25.80;60.00
49238;DHT22;35069;47.906;1.892;2022-08-03T05:53:42;26.10;59.70
49238;DHT22;35069;47.906;1.892;2022-08-03T05:56:08;26.30;59.40
49238;DHT22;35069;47.906;1.892;2022-08-03T05:58:34;26.50;59.00
49238;DHT22;35069;47.906;1.892;2022-08-03T06:01:00;26.60;58.60
49238;DHT22;35069;47.906;1.892;2022-08-03T06:03:25;26.60;58.30
49238;DHT22;35069;47.906;1.892;2022-08-03T06:05:52;26.80;58.30
49238;DHT22;35069;47.906;1.892;2022-08-03T06:08:18;26.80;58.30
49238;DHT22;35069;47.906;1.892;2022-08-03T06:10:44;26.80;57.40
49238;DHT22;35069;47.906;1.892;2022-08-03T06:13:10;26.80;57.40
49238;DHT22;35069;47.906;1.892;2022-08-03T06:15:35;27.00;57.50
49238;DHT22;35069;47.906;1.892;2022-08-03T06:18:01;27.10;57.40
49238;DHT22;35069;47.906;1.892;2022-08-03T06:20:27;27.20;57.00
49238;DHT22;35069;47.906;1.892;2022-08-03T06:22:52;27.30;56.80
49238;DHT22;35069;47.906;1.892;2022-08-03T06:25:18;27.40;56.60
49238;DHT22;35069;47.906;1.892;2022-08-03T06:27:44;27.50;56.10
49238;DHT22;35069;47.906;1.892;2022-08-03T06:30:11;27.40;56.10
49238;DHT22;35069;47.906;1.892;2022-08-03T06:32:37;27.50;55.90
49238;DHT22;35069;47.906;1.892;2022-08-03T06:35:07;27.50;56.10
49238;DHT22;35069;47.906;1.892;2022-08-03T06:37:47;27.70;56.10
49238;DHT22;35069;47.906;1.892;2022-08-03T06:40:19;28.00;55.60
49238;DHT22;35069;47.906;1.892;2022-08-03T06:42:52;28.20;55.60
49238;DHT22;35069;47.906;1.892;2022-08-03T06:45:18;28.40;55.40
49238;DHT22;35069;47.906;1.892;2022-08-03T06:47:44;28.70;55.30
49238;DHT22;35069;47.906;1.892;2022-08-03T06:50:09;29.00;55.00
49238;DHT22;35069;47.906;1.892;2022-08-03T06:52:35;29.50;54.40
49238;DHT22;35069;47.906;1.892;2022-08-03T06:55:01;29.80;53.70
49238;DHT22;35069;47.906;1.892;2022-08-03T06:57:26;30.00;52.80
49238;DHT22;35069;47.906;1.892;2022-08-03T06:59:52;30.10;52.40
49238;DHT22;35069;47.906;1.892;2022-08-03T07:02:18;30.20;52.00
49238;DHT22;35069;47.906;1.892;2022-08-03T07:04:44;30.30;51.50
49238;DHT22;35069;47.906;1.892;2022-08-03T07:07:10;30.30;51.60
49238;DHT22;35069;47.906;1.892;2022-08-03T07:09:35;30.50;51.50
49238;DHT22;35069;47.906;1.892;2022-08-03T07:12:02;30.90;51.40
49238;DHT22;35069;47.906;1.892;2022-08-03T07:14:28;31.00;50.70
49238;DHT22;35069;47.906;1.892;2022-08-03T07:16:54;31.40;50.20
49238;DHT22;35069;47.906;1.892;2022-08-03T07:19:19;31.90;49.70
49238;DHT22;35069;47.906;1.892;2022-08-03T07:21:45;32.30;49.30
49238;DHT22;35069;47.906;1.892;2022-08-03T07:24:11;32.70;48.70
49238;DHT22;35069;47.906;1.892;2022-08-03T07:26:37;33.10;48.60
49238;DHT22;35069;47.906;1.892;2022-08-03T07:29:03;33.60;48.00
49238;DHT22;35069;47.906;1.892;2022-08-03T07:31:28;34.10;47.70
49238;DHT22;35069;47.906;1.892;2022-08-03T07:33:54;34.70;47.00
49238;DHT22;35069;47.906;1.892;2022-08-03T07:36:19;35.30;46.10
49238;DHT22;35069;47.906;1.892;2022-08-03T07:38:45;36.10;45.40
49238;DHT22;35069;47.906;1.892;2022-08-03T07:41:11;36.80;43.80
49238;DHT22;35069;47.906;1.892;2022-08-03T07:43:36;37.30;42.80
49238;DHT22;35069;47.906;1.892;2022-08-03T07:46:02;37.30;42.60
49238;DHT22;35069;47.906;1.892;2022-08-03T07:48:28;37.90;41.90
49238;DHT22;35069;47.906;1.892;2022-08-03T07:50:53;38.70;41.20
49238;DHT22;35069;47.906;1.892;2022-08-03T07:53:19;39.90;39.80
49238;DHT22;35069;47.906;1.892;2022-08-03T07:55:44;41.20;38.30
49238;DHT22;35069;47.906;1.892;2022-08-03T07:58:11;42.30;37.00
49238;DHT22;35069;47.906;1.892;2022-08-03T08:00:40;43.00;36.30
49238;DHT22;35069;47.906;1.892;2022-08-03T08:03:06;44.10;35.30
49238;DHT22;35069;47.906;1.892;2022-08-03T08:05:33;44.50;34.60
49238;DHT22;35069;47.906;1.892;2022-08-03T08:08:00;45.30;34.40
49238;DHT22;35069;47.906;1.892;2022-08-03T08:10:26;45.00;34.00
49238;DHT22;35069;47.906;1.892;2022-08-03T08:12:52;44.60;34.00
49238;DHT22;35069;47.906;1.892;2022-08-03T08:15:18;44.60;34.20
49238;DHT22;35069;47.906;1.892;2022-08-03T08:17:50;45.20;34.30
49238;DHT22;35069;47.906;1.892;2022-08-03T08:20:19;45.80;33.90
49238;DHT22;35069;47.906;1.892;2022-08-03T08:22:45;46.40;33.30
49238;DHT22;35069;47.906;1.892;2022-08-03T08:25:11;47.30;32.70
49238;DHT22;35069;47.906;1.892;2022-08-03T08:27:41;48.00;31.90
49238;DHT22;35069;47.906;1.892;2022-08-03T08:30:07;49.00;31.40
49238;DHT22;35069;47.906;1.892;2022-08-03T08:32:33;49.40;30.80
49238;DHT22;35069;47.906;1.892;2022-08-03T08:34:59;49.20;30.50
49238;DHT22;35069;47.906;1.892;2022-08-03T08:37:24;49.10;30.60
49238;DHT22;35069;47.906;1.892;2022-08-03T08:39:50;48.40;30.40
49238;DHT22;35069;47.906;1.892;2022-08-03T08:42:16;47.50;31.10
49238;DHT22;35069;47.906;1.892;2022-08-03T08:44:41;47.10;31.30
49238;DHT22;35069;47.906;1.892;2022-08-03T08:47:08;46.90;31.40
49238;DHT22;35069;47.906;1.892;2022-08-03T08:49:37;46.60;31.40
49238;DHT22;35069;47.906;1.892;2022-08-03T08:52:07;46.30;31.50
49238;DHT22;35069;47.906;1.892;2022-08-03T08:54:37;46.30;31.00
49238;DHT22;35069;47.906;1.892;2022-08-03T08:57:08;45.60;31.00
49238;DHT22;35069;47.906;1.892;2022-08-03T08:59:33;44.50;31.50
49238;DHT22;35069;47.906;1.892;2022-08-03T09:01:59;43.30;32.40
49238;DHT22;35069;47.906;1.892;2022-08-03T09:04:29;42.40;33.70
49238;DHT22;35069;47.906;1.892;2022-08-03T09:06:55;41.50;34.80
49238;DHT22;35069;47.906;1.892;2022-08-03T09:09:21;40.70;35.40
49238;DHT22;35069;47.906;1.892;2022-08-03T09:11:47;40.10;36.00
49238;DHT22;35069;47.906;1.892;2022-08-03T09:14:14;39.50;36.60
49238;DHT22;35069;47.906;1.892;2022-08-03T09:16:58;39.30;36.80
49238;DHT22;35069;47.906;1.892;2022-08-03T09:19:30;39.10;35.50
49238;DHT22;35069;47.906;1.892;2022-08-03T09:22:14;38.80;37.20
49238;DHT22;35069;47.906;1.892;2022-08-03T09:25:01;38.90;35.50
49238;DHT22;35069;47.906;1.892;2022-08-03T09:27:26;38.60;36.00
49238;DHT22;35069;47.906;1.892;2022-08-03T09:29:55;38.90;36.30
49238;DHT22;35069;47.906;1.892;2022-08-03T09:32:23;40.30;36.00
49238;DHT22;35069;47.906;1.892;2022-08-03T09:34:50;42.20;34.20
49238;DHT22;35069;47.906;1.892;2022-08-03T09:37:19;43.90;32.30
49238;DHT22;35069;47.906;1.892;2022-08-03T09:39:47;45.70;31.40
49238;DHT22;35069;47.906;1.892;2022-08-03T09:42:16;47.30;29.50
49238;DHT22;35069;47.906;1.892;2022-08-03T09:44:44;48.80;28.70
49238;DHT22;35069;47.906;1.892;2022-08-03T09:47:12;49.40;27.80
49238;DHT22;35069;47.906;1.892;2022-08-03T09:49:39;48.70;27.60
49238;DHT22;35069;47.906;1.892;2022-08-03T09:52:14;48.30;27.80
49238;DHT22;35069;47.906;1.892;2022-08-03T09:54:41;47.50;28.40
49238;DHT22;35069;47.906;1.892;2022-08-03T09:57:09;46.80;29.00
49238;DHT22;35069;47.906;1.892;2022-08-03T09:59:44;46.00;29.60
49238;DHT22;35069;47.906;1.892;2022-08-03T10:02:23;45.30;29.90
49238;DHT22;35069;47.906;1.892;2022-08-03T10:04:52;44.80;30.10
49238;DHT22;35069;47.906;1.892;2022-08-03T10:07:22;44.80;31.00
49238;DHT22;35069;47.906;1.892;2022-08-03T10:12:20;45.80;30.00
49238;DHT22;35069;47.906;1.892;2022-08-03T10:14:46;46.80;30.30
49238;DHT22;35069;47.906;1.892;2022-08-03T10:17:12;48.00;29.70
49238;DHT22;35069;47.906;1.892;2022-08-03T10:19:38;49.20;29.20
49238;DHT22;35069;47.906;1.892;2022-08-03T10:24:45;51.50;28.00
49238;DHT22;35069;47.906;1.892;2022-08-03T10:27:13;53.20;27.80
49238;DHT22;35069;47.906;1.892;2022-08-03T10:29:52;54.40;27.10
49238;DHT22;35069;47.906;1.892;2022-08-03T10:32:29;55.70;26.70
49238;DHT22;35069;47.906;1.892;2022-08-03T10:35:07;57.00;26.30
49238;DHT22;35069;47.906;1.892;2022-08-03T10:37:40;58.30;25.70
49238;DHT22;35069;47.906;1.892;2022-08-03T10:40:07;59.00;25.10
49238;DHT22;35069;47.906;1.892;2022-08-03T10:42:34;58.60;25.10
49238;DHT22;35069;47.906;1.892;2022-08-03T10:45:06;58.70;25.10
49238;DHT22;35069;47.906;1.892;2022-08-03T10:47:33;58.60;24.70
49238;DHT22;35069;47.906;1.892;2022-08-03T10:50:00;58.30;24.80
49238;DHT22;35069;47.906;1.892;2022-08-03T10:52:26;57.80;24.80
49238;DHT22;35069;47.906;1.892;2022-08-03T10:54:52;58.40;25.00
49238;DHT22;35069;47.906;1.892;2022-08-03T10:57:53;59.20;25.00
49238;DHT22;35069;47.906;1.892;2022-08-03T11:00:21;59.50;24.60
49238;DHT22;35069;47.906;1.892;2022-08-03T11:03:09;58.90;24.30
49238;DHT22;35069;47.906;1.892;2022-08-03T11:05:37;58.30;24.40
49238;DHT22;35069;47.906;1.892;2022-08-03T11:10:46;58.30;24.50
49238;DHT22;35069;47.906;1.892;2022-08-03T11:13:18;58.40;24.40
49238;DHT22;35069;47.906;1.892;2022-08-03T11:15:46;58.60;24.30
49238;DHT22;35069;47.906;1.892;2022-08-03T11:18:14;58.70;24.30
49238;DHT22;35069;47.906;1.892;2022-08-03T11:20:43;56.80;23.90
49238;DHT22;35069;47.906;1.892;2022-08-03T11:23:10;55.50;24.80
49238;DHT22;35069;47.906;1.892;2022-08-03T11:28:35;50.50;24.90
49238;DHT22;35069;47.906;1.892;2022-08-03T11:34:05;45.20;27.10
49238;DHT22;35069;47.906;1.892;2022-08-03T11:39:45;41.40;29.00
49238;DHT22;35069;47.906;1.892;2022-08-03T11:44:54;39.30;29.50
49238;DHT22;35069;47.906;1.892;2022-08-03T11:47:20;38.60;29.90
49238;DHT22;35069;47.906;1.892;2022-08-03T11:49:47;38.20;30.30
49238;DHT22;35069;47.906;1.892;2022-08-03T11:52:14;37.70;30.70
49238;DHT22;35069;47.906;1.892;2022-08-03T11:54:41;37.40;31.00
49238;DHT22;35069;47.906;1.892;2022-08-03T11:57:07;36.80;31.40
49238;DHT22;35069;47.906;1.892;2022-08-03T11:59:34;36.50;32.00
49238;DHT22;35069;47.906;1.892;2022-08-03T12:02:10;36.20;32.20
49238;DHT22;35069;47.906;1.892;2022-08-03T12:04:57;36.00;33.00
49238;DHT22;35069;47.906;1.892;2022-08-03T12:07:25;35.90;34.30
49238;DHT22;35069;47.906;1.892;2022-08-03T12:10:14;35.80;33.10
49238;DHT22;35069;47.906;1.892;2022-08-03T12:12:40;35.80;33.80
49238;DHT22;35069;47.906;1.892;2022-08-03T12:15:07;35.50;33.50
49238;DHT22;35069;47.906;1.892;2022-08-03T12:17:37;35.40;33.80
49238;DHT22;35069;47.906;1.892;2022-08-03T12:20:06;35.30;34.20
49238;DHT22;35069;47.906;1.892;2022-08-03T12:25:23;35.10;34.50
49238;DHT22;35069;47.906;1.892;2022-08-03T12:27:50;35.10;34.70
49238;DHT22;35069;47.906;1.892;2022-08-03T12:30:16;35.00;34.60
49238;DHT22;35069;47.906;1.892;2022-08-03T12:32:42;34.90;34.70
49238;DHT22;35069;47.906;1.892;2022-08-03T12:35:08;34.70;34.70
49238;DHT22;35069;47.906;1.892;2022-08-03T12:37:34;34.60;35.10
49238;DHT22;35069;47.906;1.892;2022-08-03T12:40:01;34.60;35.40
49238;DHT22;35069;47.906;1.892;2022-08-03T12:42:32;34.50;35.50
49238;DHT22;35069;47.906;1.892;2022-08-03T12:44:58;34.40;35.50
49238;DHT22;35069;47.906;1.892;2022-08-03T12:47:24;34.30;35.60
49238;DHT22;35069;47.906;1.892;2022-08-03T12:49:53;34.30;36.00
49238;DHT22;35069;47.906;1.892;2022-08-03T12:52:21;34.30;36.10
49238;DHT22;35069;47.906;1.892;2022-08-03T12:54:58;34.30;36.10
49238;DHT22;35069;47.906;1.892;2022-08-03T12:57:24;34.20;36.10
49238;DHT22;35069;47.906;1.892;2022-08-03T12:59:50;34.20;36.20
49238;DHT22;35069;47.906;1.892;2022-08-03T13:02:24;34.10;36.20
49238;DHT22;35069;47.906;1.892;2022-08-03T13:04:52;34.00;36.30
49238;DHT22;35069;47.906;1.892;2022-08-03T13:07:18;33.90;36.50
49238;DHT22;35069;47.906;1.892;2022-08-03T13:09:49;33.90;36.60
49238;DHT22;35069;47.906;1.892;2022-08-03T13:12:16;34.00;36.70
49238;DHT22;35069;47.906;1.892;2022-08-03T13:14:46;33.90;36.50
49238;DHT22;35069;47.906;1.892;2022-08-03T13:17:12;34.00;36.60
49238;DHT22;35069;47.906;1.892;2022-08-03T13:19:39;34.00;36.60
49238;DHT22;35069;47.906;1.892;2022-08-03T13:24:44;34.20;36.60
49238;DHT22;35069;47.906;1.892;2022-08-03T13:27:11;34.20;36.50
49238;DHT22;35069;47.906;1.892;2022-08-03T13:29:37;34.10;36.30
49238;DHT22;35069;47.906;1.892;2022-08-03T13:32:04;34.00;36.30
49238;DHT22;35069;47.906;1.892;2022-08-03T13:34:30;34.00;36.40
49238;DHT22;35069;47.906;1.892;2022-08-03T13:36:55;34.00;36.50
49238;DHT22;35069;47.906;1.892;2022-08-03T13:39:21;34.00;36.50
49238;DHT22;35069;47.906;1.892;2022-08-03T13:41:47;34.00;36.50
49238;DHT22;35069;47.906;1.892;2022-08-03T13:44:13;34.10;36.50
49238;DHT22;35069;47.906;1.892;2022-08-03T13:46:39;34.10;36.40
49238;DHT22;35069;47.906;1.892;2022-08-03T13:49:06;34.10;36.30
49238;DHT22;35069;47.906;1.892;2022-08-03T13:51:32;34.00;36.30
49238;DHT22;35069;47.906;1.892;2022-08-03T13:53:58;33.90;36.90
49238;DHT22;35069;47.906;1.892;2022-08-03T13:56:25;33.90;36.30
49238;DHT22;35069;47.906;1.892;2022-08-03T13:58:51;34.00;36.40
49238;DHT22;35069;47.906;1.892;2022-08-03T14:01:16;34.00;36.20
49238;DHT22;35069;47.906;1.892;2022-08-03T14:03:42;34.00;36.30
49238;DHT22;35069;47.906;1.892;2022-08-03T14:06:08;34.00;36.30
49238;DHT22;35069;47.906;1.892;2022-08-03T14:08:34;34.00;36.30
49238;DHT22;35069;47.906;1.892;2022-08-03T14:10:59;34.00;36.30
49238;DHT22;35069;47.906;1.892;2022-08-03T14:13:25;34.10;36.20
49238;DHT22;35069;47.906;1.892;2022-08-03T14:15:50;34.00;36.10
49238;DHT22;35069;47.906;1.892;2022-08-03T14:18:18;34.00;36.10
49238;DHT22;35069;47.906;1.892;2022-08-03T14:20:47;34.10;36.10
49238;DHT22;35069;47.906;1.892;2022-08-03T14:23:13;34.00;35.90
49238;DHT22;35069;47.906;1.892;2022-08-03T14:25:39;34.10;35.90
49238;DHT22;35069;47.906;1.892;2022-08-03T14:28:06;34.10;35.90
49238;DHT22;35069;47.906;1.892;2022-08-03T14:30:33;34.10;35.80
49238;DHT22;35069;47.906;1.892;2022-08-03T14:32:59;34.10;35.90
49238;DHT22;35069;47.906;1.892;2022-08-03T14:35:24;34.10;36.40
49238;DHT22;35069;47.906;1.892;2022-08-03T14:37:50;34.10;35.80
49238;DHT22;35069;47.906;1.892;2022-08-03T14:40:17;34.10;35.80
49238;DHT22;35069;47.906;1.892;2022-08-03T14:42:42;34.10;35.80
49238;DHT22;35069;47.906;1.892;2022-08-03T14:45:09;34.20;35.90
49238;DHT22;35069;47.906;1.892;2022-08-03T14:47:35;34.10;35.90
49238;DHT22;35069;47.906;1.892;2022-08-03T14:50:00;34.20;35.90
49238;DHT22;35069;47.906;1.892;2022-08-03T14:52:29;34.20;35.80
49238;DHT22;35069;47.906;1.892;2022-08-03T14:54:55;34.20;36.00
49238;DHT22;35069;47.906;1.892;2022-08-03T14:57:20;34.20;35.80
49238;DHT22;35069;47.906;1.892;2022-08-03T14:59:46;34.20;35.90
49238;DHT22;35069;47.906;1.892;2022-08-03T15:02:12;34.20;36.00
49238;DHT22;35069;47.906;1.892;2022-08-03T15:04:37;34.20;36.10
49238;DHT22;35069;47.906;1.892;2022-08-03T15:07:03;34.20;36.00
49238;DHT22;35069;47.906;1.892;2022-08-03T15:09:29;34.30;36.10
49238;DHT22;35069;47.906;1.892;2022-08-03T15:11:55;34.30;36.00
49238;DHT22;35069;47.906;1.892;2022-08-03T15:14:20;34.30;35.90
49238;DHT22;35069;47.906;1.892;2022-08-03T15:16:46;34.30;35.90
49238;DHT22;35069;47.906;1.892;2022-08-03T15:19:12;34.20;35.90
49238;DHT22;35069;47.906;1.892;2022-08-03T15:21:37;34.20;35.90
49238;DHT22;35069;47.906;1.892;2022-08-03T15:24:03;34.10;35.90
49238;DHT22;35069;47.906;1.892;2022-08-03T15:26:29;34.10;36.00
49238;DHT22;35069;47.906;1.892;2022-08-03T15:28:56;34.00;36.00
49238;DHT22;35069;47.906;1.892;2022-08-03T15:31:22;34.00;36.00
49238;DHT22;35069;47.906;1.892;2022-08-03T15:33:48;33.90;36.10
49238;DHT22;35069;47.906;1.892;2022-08-03T15:36:19;34.00;36.10
49238;DHT22;35069;47.906;1.892;2022-08-03T15:38:45;34.00;36.10
49238;DHT22;35069;47.906;1.892;2022-08-03T15:41:12;34.00;36.00
49238;DHT22;35069;47.906;1.892;2022-08-03T15:43:38;34.00;35.90
49238;DHT22;35069;47.906;1.892;2022-08-03T15:46:04;34.00;35.90
49238;DHT22;35069;47.906;1.892;2022-08-03T15:48:30;34.00;35.80
49238;DHT22;35069;47.906;1.892;2022-08-03T15:50:55;34.00;35.80
49238;DHT22;35069;47.906;1.892;2022-08-03T15:53:21;34.10;35.90
49238;DHT22;35069;47.906;1.892;2022-08-03T15:55:47;34.20;36.00
49238;DHT22;35069;47.906;1.892;2022-08-03T15:58:12;34.20;35.80
49238;DHT22;35069;47.906;1.892;2022-08-03T16:00:39;34.20;35.70
49238;DHT22;35069;47.906;1.892;2022-08-03T16:03:05;34.20;35.70
49238;DHT22;35069;47.906;1.892;2022-08-03T16:05:31;34.20;35.80
49238;DHT22;35069;47.906;1.892;2022-08-03T16:07:57;34.10;35.80
49238;DHT22;35069;47.906;1.892;2022-08-03T16:10:23;34.10;35.90